Time;durP1;ratioP1;P1;durP2;ratioP2;P2;SDS_P1;SDS_P2;PMS_P1;PMS_P2;Temp;Humidity;BMP_temperature;BMP_pressure;BME280_temperature;BME280_humidity;BME280_pressure;Samples;Min_cycle;Max_cycle;Signal;HPM_P1;HPM_P2
2022/12/17 13:08:09;;;;;;;83.68;31.48;;;;;;;;;;5052346;28;20049;-80
2022/12/17 13:10:36;;;;;;;78.47;30.97;;;;;;;;;;5051936;28;20171;-80
2022/12/17 13:13:17;;;;;;;75.28;31.23;;;;;;;;;;5062094;28;20283;-80
2022/12/17 13:15:52;;;;;;;82.30;32.92;;;;;;;;;;5055136;28;20119;-80
2022/12/17 13:18:18;;;;;;;83.18;33.03;;;;;;;;;;5070160;28;20044;-80
2022/12/17 13:20:55;;;;;;;80.72;32.55;;;;;;;;;;5051753;28;20118;-80
2022/12/17 13:23:26;;;;;;;84.88;33.08;;;;;;;;;;5052105;28;20060;-80
2022/12/17 13:26:11;;;;;;;81.15;33.72;;;;;;;;;;5035131;28;20079;-80
2022/12/17 13:28:38;;;;;;;88.95;34.65;;;;;;;;;;5051523;28;20041;-80
2022/12/17 13:31:05;;;;;;;77.57;32.08;;;;;;;;;;5052020;28;20036;-80
2022/12/17 13:33:44;;;;;;;82.40;34.65;;;;;;;;;;5031499;28;20040;-80
2022/12/17 13:36:26;;;;;;;81.25;31.50;;;;;;;;;;5050244;28;20060;-80
2022/12/17 13:38:59;;;;;;;90.72;36.33;;;;;;;;;;5051512;28;20048;-80
2022/12/17 13:41:32;;;;;;;87.43;33.60;;;;;;;;;;5034981;28;20045;-80
2022/12/17 13:44:01;;;;;;;92.50;35.45;;;;;;;;;;5051181;28;20040;-80
2022/12/17 13:46:28;;;;;;;84.35;32.63;;;;;;;;;;5051443;28;20044;-80
2022/12/17 13:48:56;;;;;;;91.85;36.42;;;;;;;;;;5051430;28;20049;-80
2022/12/17 13:51:22;;;;;;;95.22;36.03;;;;;;;;;;5035659;28;20474;-80
2022/12/17 13:53:53;;;;;;;90.97;35.38;;;;;;;;;;5051351;28;20493;-80
2022/12/17 13:56:23;;;;;;;85.80;32.72;;;;;;;;;;5051658;28;20045;-80
2022/12/17 13:58:53;;;;;;;89.72;33.03;;;;;;;;;;5051049;28;20040;-80
2022/12/17 14:01:19;;;;;;;86.25;33.28;;;;;;;;;;5035030;28;20075;-80
2022/12/17 14:03:50;;;;;;;95.40;36.40;;;;;;;;;;5034163;28;20068;-80
2022/12/17 14:06:17;;;;;;;86.05;32.58;;;;;;;;;;5051207;28;20091;-80
2022/12/17 14:08:43;;;;;;;99.47;36.78;;;;;;;;;;5050977;28;20370;-80
2022/12/17 14:14:01;;;;;;;94.50;34.75;;;;;;;;;;5042858;28;20048;-79
2022/12/17 14:16:27;;;;;;;98.78;38.08;;;;;;;;;;5055067;28;20072;-79
2022/12/17 14:18:55;;;;;;;118.18;45.08;;;;;;;;;;5054228;28;20037;-79
2022/12/17 14:21:21;;;;;;;96.93;36.85;;;;;;;;;;5071234;28;20517;-79
2022/12/17 14:23:49;;;;;;;91.45;36.03;;;;;;;;;;5071019;28;20052;-80
2022/12/17 14:26:16;;;;;;;95.38;37.22;;;;;;;;;;5071487;28;20116;-80
2022/12/17 14:28:47;;;;;;;96.10;37.58;;;;;;;;;;5070813;28;20037;-80
2022/12/17 14:31:27;;;;;;;92.28;36.40;;;;;;;;;;5070882;28;20032;-80
2022/12/17 14:34:06;;;;;;;90.78;35.90;;;;;;;;;;5047318;28;20056;-80
2022/12/17 14:36:33;;;;;;;90.18;34.88;;;;;;;;;;5046297;28;20599;-80
2022/12/17 14:39:01;;;;;;;89.68;35.65;;;;;;;;;;5070620;28;20044;-80
2022/12/17 14:44:18;;;;;;;100.00;35.97;;;;;;;;;;5070601;28;20048;-80
2022/12/17 14:46:44;;;;;;;94.82;34.08;;;;;;;;;;5064121;28;20405;-79
2022/12/17 14:49:20;;;;;;;94.05;34.55;;;;;;;;;;5069651;28;20041;-79
2022/12/17 14:51:46;;;;;;;;;;;;;;;;;;5025231;28;20029;-79
2022/12/17 14:54:17;;;;;;;88.53;33.08;;;;;;;;;;5067596;28;19916;-79
2022/12/17 14:56:43;;;;;;;94.85;35.35;;;;;;;;;;5058076;28;20063;-79
2022/12/17 14:59:28;;;;;;;88.10;34.17;;;;;;;;;;5108879;28;20063;-79
2022/12/17 15:01:54;;;;;;;90.90;34.15;;;;;;;;;;5046887;28;20142;-79
2022/12/17 15:04:21;;;;;;;92.03;33.17;;;;;;;;;;5074677;28;20063;-80
2022/12/17 15:06:47;;;;;;;97.90;35.45;;;;;;;;;;5073713;28;20036;-79
2022/12/17 15:09:16;;;;;;;92.05;34.70;;;;;;;;;;5054806;28;20044;-79
2022/12/17 15:11:42;;;;;;;97.85;35.08;;;;;;;;;;5051212;28;20044;-79
2022/12/17 15:14:08;;;;;;;96.20;34.45;;;;;;;;;;5069500;28;20123;-80
2022/12/17 15:16:34;;;;;;;93.68;33.22;;;;;;;;;;5048690;28;20040;-79
2022/12/17 15:19:00;;;;;;;100.40;31.23;;;;;;;;;;5074115;28;20040;-79
2022/12/17 15:21:26;;;;;;;87.35;31.70;;;;;;;;;;5074746;28;20041;-79
2022/12/17 15:23:52;;;;;;;92.85;33.92;;;;;;;;;;5057342;28;20147;-79
2022/12/17 15:26:20;;;;;;;97.15;33.80;;;;;;;;;;5075842;28;20040;-79
2022/12/17 15:28:46;;;;;;;89.60;31.13;;;;;;;;;;5074439;28;20052;-79
2022/12/17 15:31:13;;;;;;;98.65;34.25;;;;;;;;;;5070077;28;20033;-79
2022/12/17 15:33:39;;;;;;;98.20;33.63;;;;;;;;;;5062217;28;20087;-80
2022/12/17 15:36:06;;;;;;;95.50;30.75;;;;;;;;;;5072006;28;20076;-80
2022/12/17 15:38:32;;;;;;;92.97;32.38;;;;;;;;;;5074312;28;20040;-80
2022/12/17 15:43:09;;;;;;;89.20;31.23;;;;;;;;;;5073840;28;20394;-80
2022/12/17 15:43:51;;;;;;;95.55;31.60;;;;;;;;;;5074057;28;20497;-80
2022/12/17 15:46:18;;;;;;;103.70;33.42;;;;;;;;;;5074322;28;20043;-80
2022/12/17 15:48:44;;;;;;;101.65;32.10;;;;;;;;;;5074139;28;20041;-80
2022/12/17 15:51:10;;;;;;;100.95;33.55;;;;;;;;;;5073747;28;20075;-80
2022/12/17 15:53:36;;;;;;;96.65;32.65;;;;;;;;;;5074085;28;20072;-80
2022/12/17 15:56:02;;;;;;;105.38;34.40;;;;;;;;;;5043809;28;20036;-80
2022/12/17 15:58:29;;;;;;;97.47;32.92;;;;;;;;;;5045366;28;20079;-80
2022/12/17 16:00:55;;;;;;;96.82;32.30;;;;;;;;;;5073201;28;20052;-80
2022/12/17 16:03:21;;;;;;;95.97;32.58;;;;;;;;;;5073400;28;20040;-81
2022/12/17 16:05:47;;;;;;;100.75;33.35;;;;;;;;;;5073624;28;20055;-81
2022/12/17 16:08:13;;;;;;;100.65;34.38;;;;;;;;;;5094572;28;20056;-81
2022/12/17 16:10:39;;;;;;;100.93;33.50;;;;;;;;;;5088590;28;20041;-80
2022/12/17 16:13:05;;;;;;;92.70;33.00;;;;;;;;;;5056695;28;20045;-80
2022/12/17 16:15:31;;;;;;;103.55;34.00;;;;;;;;;;5056865;28;20509;-80
2022/12/17 16:17:57;;;;;;;98.38;32.22;;;;;;;;;;5056511;28;20045;-80
2022/12/17 16:20:24;;;;;;;90.07;28.48;;;;;;;;;;5074387;28;20056;-79
2022/12/17 16:22:50;;;;;;;99.45;30.90;;;;;;;;;;5073267;28;20075;-79
2022/12/17 16:25:16;;;;;;;105.32;34.17;;;;;;;;;;5072787;28;20119;-80
2022/12/17 16:27:42;;;;;;;94.03;30.52;;;;;;;;;;5068507;28;20045;-81
2022/12/17 16:30:10;;;;;;;104.60;33.92;;;;;;;;;;5063614;28;20040;-80
2022/12/17 16:32:36;;;;;;;105.70;32.90;;;;;;;;;;5073727;28;20118;-81
2022/12/17 16:35:03;;;;;;;108.32;34.05;;;;;;;;;;5056088;28;20047;-79
2022/12/17 16:37:29;;;;;;;98.53;31.50;;;;;;;;;;5072832;28;20123;-81
2022/12/17 16:39:55;;;;;;;103.57;30.30;;;;;;;;;;5048684;28;20091;-81
2022/12/17 16:42:24;;;;;;;100.70;30.75;;;;;;;;;;5067847;28;20047;-80
2022/12/17 16:45:12;;;;;;;93.57;28.77;;;;;;;;;;5073079;28;20125;-81
2022/12/17 16:47:37;;;;;;;111.25;32.53;;;;;;;;;;5092676;28;20044;-80
2022/12/17 16:50:03;;;;;;;100.35;30.88;;;;;;;;;;5072539;28;20082;-81
2022/12/17 16:52:29;;;;;;;101.57;32.10;;;;;;;;;;5074221;28;20515;-81
2022/12/17 16:54:55;;;;;;;94.75;30.13;;;;;;;;;;5059908;28;20079;-81
2022/12/17 16:57:21;;;;;;;98.03;30.30;;;;;;;;;;5074164;28;20044;-80
2022/12/17 16:59:48;;;;;;;101.85;31.10;;;;;;;;;;5073103;28;20075;-80
2022/12/17 17:02:15;;;;;;;92.10;27.92;;;;;;;;;;5072191;28;20086;-80
2022/12/17 17:04:41;;;;;;;108.00;31.88;;;;;;;;;;5071475;28;20044;-80
2022/12/17 17:07:07;;;;;;;106.97;32.08;;;;;;;;;;5056444;28;20037;-80
2022/12/17 17:09:33;;;;;;;98.80;30.45;;;;;;;;;;5061172;28;20041;-80
2022/12/17 17:11:59;;;;;;;103.50;30.15;;;;;;;;;;5072343;28;20045;-79
2022/12/17 17:14:25;;;;;;;112.97;32.63;;;;;;;;;;5089615;28;20051;-80
2022/12/17 17:16:52;;;;;;;106.60;31.27;;;;;;;;;;5072805;28;20037;-80
2022/12/17 17:19:18;;;;;;;107.93;31.45;;;;;;;;;;5049573;28;20084;-79
2022/12/17 17:21:50;;;;;;;114.85;33.17;;;;;;;;;;5063719;28;20105;-80
2022/12/17 17:24:17;;;;;;;99.72;32.20;;;;;;;;;;5057826;28;20486;-80
2022/12/17 17:26:43;;;;;;;113.03;32.67;;;;;;;;;;5055472;28;20032;-80
2022/12/17 17:29:09;;;;;;;94.72;30.58;;;;;;;;;;5103305;28;20032;-80
2022/12/17 17:31:36;;;;;;;109.43;32.05;;;;;;;;;;5052251;28;20552;-80
2022/12/17 17:34:07;;;;;;;97.70;28.25;;;;;;;;;;5074516;28;20411;-80
2022/12/17 17:36:33;;;;;;;110.50;33.15;;;;;;;;;;5053511;28;20039;-80
2022/12/17 17:39:01;;;;;;;105.13;30.20;;;;;;;;;;5048848;28;20051;-80
2022/12/17 17:41:28;;;;;;;103.88;29.75;;;;;;;;;;5055495;28;20036;-80
2022/12/17 17:43:59;;;;;;;106.53;30.33;;;;;;;;;;5071711;28;20049;-80
2022/12/17 17:46:25;;;;;;;110.22;31.67;;;;;;;;;;5058616;28;20048;-80
2022/12/17 17:48:52;;;;;;;117.53;32.33;;;;;;;;;;5071847;28;20086;-80
2022/12/17 17:51:20;;;;;;;120.38;32.97;;;;;;;;;;5071318;28;20039;-80
2022/12/17 17:53:47;;;;;;;117.05;32.17;;;;;;;;;;5062885;28;20037;-81
2022/12/17 17:56:14;;;;;;;108.25;32.05;;;;;;;;;;5051553;28;20056;-80
2022/12/17 17:58:45;;;;;;;114.70;32.75;;;;;;;;;;5059537;28;20068;-80
2022/12/17 18:01:12;;;;;;;112.60;31.45;;;;;;;;;;5071155;28;20056;-81
2022/12/17 18:03:38;;;;;;;123.82;33.40;;;;;;;;;;5058091;28;20044;-80
2022/12/17 18:06:06;;;;;;;113.22;33.47;;;;;;;;;;5071715;28;20119;-80
2022/12/17 18:08:32;;;;;;;100.90;30.20;;;;;;;;;;5056543;28;20179;-80
2022/12/17 18:10:58;;;;;;;113.10;33.35;;;;;;;;;;5041832;28;20060;-80
2022/12/17 18:16:09;;;;;;;103.30;29.40;;;;;;;;;;5046181;28;20048;-80
2022/12/17 18:18:35;;;;;;;123.38;33.15;;;;;;;;;;5057784;28;20049;-80
2022/12/17 18:21:12;;;;;;;105.65;30.67;;;;;;;;;;5057785;28;20484;-80
2022/12/17 18:23:38;;;;;;;118.72;33.22;;;;;;;;;;5058122;28;20041;-80
2022/12/17 18:26:09;;;;;;;114.78;31.67;;;;;;;;;;5070289;28;20036;-80
2022/12/17 18:28:35;;;;;;;99.40;25.65;;;;;;;;;;5071733;28;20091;-80
2022/12/17 18:31:08;;;;;;;123.43;34.45;;;;;;;;;;5071403;28;20037;-80
2022/12/17 18:33:35;;;;;;;112.20;31.23;;;;;;;;;;5071299;28;20084;-80
2022/12/17 18:36:01;;;;;;;114.80;31.50;;;;;;;;;;5054241;28;20430;-80
2022/12/17 18:38:28;;;;;;;103.90;29.42;;;;;;;;;;5054766;28;20041;-80
2022/12/17 18:40:54;;;;;;;110.80;30.23;;;;;;;;;;5071070;28;20052;-80
2022/12/17 18:43:22;;;;;;;117.35;33.80;;;;;;;;;;5070595;28;20040;-80
2022/12/17 18:45:49;;;;;;;112.30;30.75;;;;;;;;;;5057482;28;20049;-80
2022/12/17 18:48:15;;;;;;;111.93;31.65;;;;;;;;;;5070346;28;20042;-80
2022/12/17 18:50:41;;;;;;;117.03;32.53;;;;;;;;;;5071202;28;20547;-80
2022/12/17 18:53:07;;;;;;;115.57;31.10;;;;;;;;;;5072399;28;20477;-80
2022/12/17 18:55:39;;;;;;;113.45;31.08;;;;;;;;;;5070888;28;20512;-80
2022/12/17 18:58:05;;;;;;;125.38;32.90;;;;;;;;;;5070708;28;20051;-80
2022/12/17 19:00:31;;;;;;;121.68;32.65;;;;;;;;;;5070461;28;20105;-80
2022/12/17 19:02:57;;;;;;;100.93;27.13;;;;;;;;;;5070573;28;20075;-80
2022/12/17 19:05:23;;;;;;;124.88;34.45;;;;;;;;;;5104297;28;20090;-80
2022/12/17 19:07:49;;;;;;;117.53;31.10;;;;;;;;;;5058045;28;20082;-80
2022/12/17 19:10:15;;;;;;;108.75;31.95;;;;;;;;;;5065376;28;20036;-80
2022/12/17 19:12:41;;;;;;;127.22;32.50;;;;;;;;;;5063793;28;20056;-80
2022/12/17 19:15:08;;;;;;;131.93;33.45;;;;;;;;;;5047765;28;20047;-80
2022/12/17 19:17:34;;;;;;;112.60;32.22;;;;;;;;;;5070477;28;20116;-80
2022/12/17 19:20:00;;;;;;;122.80;32.42;;;;;;;;;;5059213;28;20064;-80
2022/12/17 19:22:29;;;;;;;126.75;35.35;;;;;;;;;;5067627;28;20033;-80
2022/12/17 19:24:58;;;;;;;131.35;33.35;;;;;;;;;;5070695;28;20051;-80
2022/12/17 19:27:27;;;;;;;117.57;32.15;;;;;;;;;;5056371;28;20041;-80
2022/12/17 19:29:55;;;;;;;116.63;32.63;;;;;;;;;;5062345;28;20541;-80
2022/12/17 19:32:22;;;;;;;127.28;34.15;;;;;;;;;;5064203;28;20045;-79
2022/12/17 19:34:48;;;;;;;125.13;34.13;;;;;;;;;;5054225;28;20080;-79
2022/12/17 19:37:17;;;;;;;122.65;34.72;;;;;;;;;;5037928;28;20044;-79
2022/12/17 19:39:44;;;;;;;98.45;28.80;;;;;;;;;;5073740;28;20128;-79
2022/12/17 19:42:23;;;;;;;94.80;28.63;;;;;;;;;;5062845;28;20401;-79
2022/12/17 19:44:49;;;;;;;88.20;28.65;;;;;;;;;;5054216;28;20067;-80
2022/12/17 19:47:15;;;;;;;106.10;31.35;;;;;;;;;;5054287;28;20460;-79
2022/12/17 19:49:41;;;;;;;111.85;34.75;;;;;;;;;;5071366;28;20436;-79
2022/12/17 19:52:07;;;;;;;115.97;34.97;;;;;;;;;;5064319;28;20045;-79
2022/12/17 19:54:33;;;;;;;105.50;31.63;;;;;;;;;;5067869;28;20497;-80
2022/12/17 19:56:59;;;;;;;113.40;35.47;;;;;;;;;;5037572;28;20501;-80
2022/12/17 19:59:27;;;;;;;92.47;29.50;;;;;;;;;;5068544;28;20496;-79
2022/12/17 20:01:53;;;;;;;115.13;33.50;;;;;;;;;;5057137;28;20093;-80
2022/12/17 20:04:19;;;;;;;109.35;32.50;;;;;;;;;;5061459;28;20045;-79
2022/12/17 20:06:45;;;;;;;110.78;34.05;;;;;;;;;;5041051;28;20405;-79
2022/12/17 20:09:11;;;;;;;109.40;33.78;;;;;;;;;;5050923;28;20041;-79
2022/12/17 20:11:38;;;;;;;117.95;34.15;;;;;;;;;;5053243;28;20040;-79
2022/12/17 20:14:06;;;;;;;95.60;31.05;;;;;;;;;;5072169;28;20071;-79
2022/12/17 20:16:33;;;;;;;101.30;31.40;;;;;;;;;;5073425;28;20052;-80
2022/12/17 20:19:00;;;;;;;104.22;32.58;;;;;;;;;;5070571;28;20045;-79
2022/12/17 20:21:26;;;;;;;97.43;29.58;;;;;;;;;;5062384;28;20052;-79
2022/12/17 20:23:52;;;;;;;100.25;32.47;;;;;;;;;;5072489;28;20048;-79
2022/12/17 20:26:18;;;;;;;110.53;33.35;;;;;;;;;;5053746;28;20044;-79
2022/12/17 20:28:45;;;;;;;110.63;34.10;;;;;;;;;;5066693;28;20067;-80
2022/12/17 20:31:11;;;;;;;108.47;32.97;;;;;;;;;;5068123;28;20041;-79
2022/12/17 20:33:38;;;;;;;121.90;34.80;;;;;;;;;;5053187;28;20041;-79
2022/12/17 20:36:05;;;;;;;115.43;34.15;;;;;;;;;;5053374;28;20119;-79
2022/12/17 20:38:31;;;;;;;116.32;36.40;;;;;;;;;;5046134;28;20052;-80
2022/12/17 20:41:10;;;;;;;112.65;33.40;;;;;;;;;;5043478;28;20131;-81
2022/12/17 20:43:37;;;;;;;102.18;33.17;;;;;;;;;;5063737;28;20448;-80
2022/12/17 20:46:03;;;;;;;109.00;32.65;;;;;;;;;;5054923;28;20119;-80
2022/12/17 20:48:32;;;;;;;100.10;29.67;;;;;;;;;;5073541;28;20032;-81
2022/12/17 20:50:58;;;;;;;123.85;38.80;;;;;;;;;;5054060;28;20187;-81
2022/12/17 20:53:48;;;;;;;104.55;32.17;;;;;;;;;;5035689;28;20080;-80
2022/12/17 20:56:15;;;;;;;108.72;32.47;;;;;;;;;;5026747;28;20447;-80
2022/12/17 20:58:42;;;;;;;107.20;32.03;;;;;;;;;;5053207;28;20045;-79
2022/12/17 21:01:09;;;;;;;89.97;29.25;;;;;;;;;;5053286;28;20041;-80
2022/12/17 21:03:36;;;;;;;110.47;32.53;;;;;;;;;;5035484;28;20049;-79
2022/12/17 21:06:06;;;;;;;114.85;34.05;;;;;;;;;;5052829;28;20047;-79
2022/12/17 21:08:32;;;;;;;114.10;34.35;;;;;;;;;;5053082;28;20040;-79
2022/12/17 21:10:58;;;;;;;108.97;31.10;;;;;;;;;;5073042;28;20036;-79
2022/12/17 21:13:30;;;;;;;107.20;31.45;;;;;;;;;;5060745;28;20047;-79
2022/12/17 21:15:57;;;;;;;118.22;31.98;;;;;;;;;;5052483;28;20049;-79
2022/12/17 21:18:24;;;;;;;123.63;34.40;;;;;;;;;;5064481;28;20044;-78
2022/12/17 21:20:58;;;;;;;120.80;34.75;;;;;;;;;;5071929;28;20061;-81
2022/12/17 21:23:24;;;;;;;114.72;34.20;;;;;;;;;;5060891;28;20063;-81
2022/12/17 21:25:57;;;;;;;97.00;27.55;;;;;;;;;;5069277;28;20040;-80
2022/12/17 21:28:23;;;;;;;107.53;31.73;;;;;;;;;;5063390;28;20043;-80
2022/12/17 21:30:49;;;;;;;102.35;31.95;;;;;;;;;;5052256;28;20493;-81
2022/12/17 21:33:16;;;;;;;96.35;28.80;;;;;;;;;;5052497;28;20463;-80
2022/12/17 21:35:42;;;;;;;114.97;34.17;;;;;;;;;;5052102;28;20586;-80
2022/12/17 21:38:08;;;;;;;100.57;30.17;;;;;;;;;;5058728;28;20036;-81
2022/12/17 21:40:37;;;;;;;105.90;33.13;;;;;;;;;;5059826;28;20505;-80
2022/12/17 21:43:03;;;;;;;108.00;33.70;;;;;;;;;;5066199;28;20055;-80
2022/12/17 21:45:36;;;;;;;104.38;30.90;;;;;;;;;;5063246;28;20037;-80
2022/12/17 21:48:03;;;;;;;112.47;32.53;;;;;;;;;;5057933;28;20063;-80
2022/12/17 21:50:29;;;;;;;95.60;29.83;;;;;;;;;;5071945;28;20048;-80
2022/12/17 21:52:55;;;;;;;116.63;33.20;;;;;;;;;;5055668;28;20041;-80
2022/12/17 21:55:21;;;;;;;113.45;29.80;;;;;;;;;;5051808;28;20119;-80
2022/12/17 21:57:47;;;;;;;97.53;27.90;;;;;;;;;;5051968;28;20045;-80
2022/12/17 22:00:14;;;;;;;114.07;31.52;;;;;;;;;;5051839;28;20127;-80
2022/12/17 22:02:40;;;;;;;105.15;30.63;;;;;;;;;;5051720;28;20036;-81
2022/12/17 22:05:06;;;;;;;123.40;33.25;;;;;;;;;;5065799;28;20044;-80
2022/12/17 22:07:33;;;;;;;112.45;30.65;;;;;;;;;;5051668;28;20044;-80
2022/12/17 22:09:59;;;;;;;102.55;27.60;;;;;;;;;;5051465;28;20045;-80
2022/12/17 22:15:09;;;;;;;117.97;32.53;;;;;;;;;;5044476;28;20102;-80
2022/12/17 22:17:36;;;;;;;90.45;28.55;;;;;;;;;;5051338;28;20048;-80
2022/12/17 22:20:03;;;;;;;109.18;33.20;;;;;;;;;;5084691;28;20056;-80
2022/12/17 22:22:29;;;;;;;114.03;32.05;;;;;;;;;;5051740;28;20440;-80
2022/12/17 22:24:55;;;;;;;122.53;32.63;;;;;;;;;;5034918;28;20152;-80
2022/12/17 22:27:22;;;;;;;105.10;31.00;;;;;;;;;;5051601;28;20048;-80
2022/12/17 22:35:19;;;;;;;88.57;28.15;;;;;;;;;;5062698;28;20131;-80
2022/12/17 22:37:45;;;;;;;115.72;33.15;;;;;;;;;;5053849;28;20052;-80
2022/12/17 22:40:11;;;;;;;113.95;31.67;;;;;;;;;;5060962;28;20528;-81
2022/12/17 22:45:22;;;;;;;106.50;31.20;;;;;;;;;;5061422;28;20049;-80
2022/12/17 22:47:48;;;;;;;111.85;32.95;;;;;;;;;;5070949;28;20082;-80
2022/12/17 22:50:14;;;;;;;102.72;29.55;;;;;;;;;;5063351;28;20383;-80
2022/12/17 22:52:40;;;;;;;104.45;31.70;;;;;;;;;;5051134;28;20056;-81
2022/12/17 22:55:06;;;;;;;101.53;30.95;;;;;;;;;;5057321;28;20119;-80
2022/12/17 22:57:32;;;;;;;88.07;25.42;;;;;;;;;;5071168;28;20041;-80
2022/12/17 22:59:58;;;;;;;87.25;26.20;;;;;;;;;;5086304;28;20041;-80
2022/12/17 23:02:24;;;;;;;108.32;31.23;;;;;;;;;;5051411;28;20033;-80
2022/12/17 23:04:50;;;;;;;101.00;30.10;;;;;;;;;;5034345;28;20127;-80
2022/12/17 23:07:17;;;;;;;110.03;31.77;;;;;;;;;;5051394;28;20079;-80
2022/12/17 23:09:43;;;;;;;104.28;31.10;;;;;;;;;;5054890;28;20065;-80
2022/12/17 23:14:53;;;;;;;94.18;27.90;;;;;;;;;;5063715;28;20049;-80
2022/12/17 23:17:19;;;;;;;111.60;32.85;;;;;;;;;;5038265;28;20051;-80
2022/12/17 23:19:45;;;;;;;121.20;31.48;;;;;;;;;;5037863;28;20057;-80
2022/12/17 23:22:11;;;;;;;115.90;30.42;;;;;;;;;;5068961;28;20560;-80
2022/12/17 23:24:37;;;;;;;119.00;31.42;;;;;;;;;;5055990;28;20094;-80
2022/12/17 23:27:04;;;;;;;124.75;31.55;;;;;;;;;;5054815;28;20045;-80
2022/12/17 23:29:30;;;;;;;123.63;32.20;;;;;;;;;;5054748;28;20194;-80
2022/12/17 23:31:56;;;;;;;117.97;31.27;;;;;;;;;;5054974;28;20076;-80
2022/12/17 23:34:23;;;;;;;129.38;31.80;;;;;;;;;;5052528;28;20048;-80
2022/12/17 23:36:49;;;;;;;129.75;32.42;;;;;;;;;;5054781;28;20049;-80
2022/12/17 23:39:15;;;;;;;130.48;32.08;;;;;;;;;;5056351;28;20063;-80
2022/12/17 23:41:41;;;;;;;117.28;29.65;;;;;;;;;;5066852;28;20496;-80
2022/12/17 23:44:07;;;;;;;127.15;31.42;;;;;;;;;;5054487;28;20040;-80
2022/12/17 23:46:33;;;;;;;128.10;32.60;;;;;;;;;;5068294;28;20029;-80
2022/12/17 23:48:59;;;;;;;137.30;34.40;;;;;;;;;;5037713;28;20043;-80
2022/12/17 23:51:27;;;;;;;117.75;29.95;;;;;;;;;;5051634;28;20041;-80
2022/12/17 23:53:53;;;;;;;121.63;31.10;;;;;;;;;;5037699;28;20497;-80
2022/12/17 23:56:23;;;;;;;142.48;32.88;;;;;;;;;;5054265;28;20064;-80
2022/12/17 23:58:52;;;;;;;129.35;30.23;;;;;;;;;;5054230;28;20049;-80
